Time;durP1;ratioP1;P1;durP2;ratioP2;P2;SDS_P1;SDS_P2;PMS_P1;PMS_P2;Temp;Humidity;BMP_temperature;BMP_pressure;BME280_temperature;BME280_humidity;BME280_pressure;Samples;Min_cycle;Max_cycle;Signal;HPM_P1;HPM_P2
2023/04/23 00:00:41;;;;;;;0.75;0.75;;;15.60;93.30;;;;;;4400022;32;20133;-69
2023/04/23 00:03:09;;;;;;;6.62;1.62;;;15.50;93.70;;;;;;4401842;32;20145;-71
2023/04/23 00:05:36;;;;;;;1.48;0.90;;;15.40;93.90;;;;;;4402651;32;20069;-68
2023/04/23 00:08:02;;;;;;;0.68;0.68;;;15.30;94.30;;;;;;4403412;32;20144;-68
2023/04/23 00:10:28;;;;;;;6.85;0.60;;;15.20;94.40;;;;;;4400745;32;20097;-69
2023/04/23 00:12:53;;;;;;;4.75;1.80;;;15.10;94.80;;;;;;4397563;32;20801;-70
2023/04/23 00:15:21;;;;;;;1.12;1.02;;;15.00;94.90;;;;;;4398221;32;20073;-70
2023/04/23 00:17:47;;;;;;;4.32;1.58;;;14.80;95.30;;;;;;4401535;32;20533;-70
2023/04/23 00:20:13;;;;;;;1.00;0.90;;;14.90;95.60;;;;;;4398868;32;20586;-69
2023/04/23 00:22:39;;;;;;;7.85;0.70;;;14.90;95.70;;;;;;4401920;32;20086;-70
2023/04/23 00:25:04;;;;;;;2.62;1.00;;;14.80;95.80;;;;;;4399198;32;20095;-69
2023/04/23 00:27:30;;;;;;;1.17;0.88;;;14.80;95.70;;;;;;4405213;32;20383;-70
2023/04/23 00:29:55;;;;;;;1.05;0.90;;;14.80;96.00;;;;;;4406466;32;20103;-70
2023/04/23 00:32:21;;;;;;;1.05;0.95;;;14.70;96.50;;;;;;4409117;32;20098;-70
2023/04/23 00:34:48;;;;;;;0.95;0.90;;;14.70;96.40;;;;;;4410508;32;20081;-70
2023/04/23 00:37:14;;;;;;;1.62;1.10;;;14.80;96.60;;;;;;4410128;32;20130;-69
2023/04/23 00:39:39;;;;;;;0.57;0.57;;;14.80;96.40;;;;;;4410120;32;20065;-69
2023/04/23 00:42:11;;;;;;;1.90;0.85;;;14.80;96.20;;;;;;4410615;32;20066;-69
2023/04/23 00:44:37;;;;;;;0.77;0.77;;;14.80;96.80;;;;;;4409996;32;20557;-68
2023/04/23 00:47:04;;;;;;;0.93;0.80;;;14.80;96.60;;;;;;4409420;32;20073;-70
2023/04/23 00:49:30;;;;;;;0.65;0.65;;;14.80;96.50;;;;;;4409089;32;20124;-68
2023/04/23 00:51:55;;;;;;;1.95;0.93;;;14.80;96.50;;;;;;4411274;32;20089;-69
2023/04/23 00:54:21;;;;;;;1.30;0.70;;;14.70;96.70;;;;;;4408602;32;20086;-69
2023/04/23 00:56:48;;;;;;;1.00;1.00;;;14.60;96.90;;;;;;4410414;32;20057;-69
2023/04/23 00:59:14;;;;;;;1.87;1.27;;;14.60;97.10;;;;;;4407941;32;20068;-68
2023/04/23 01:01:40;;;;;;;1.00;0.85;;;14.60;97.10;;;;;;4409268;32;20171;-69
2023/04/23 01:04:08;;;;;;;0.80;0.80;;;14.60;97.50;;;;;;4410935;32;20136;-68
2023/04/23 01:06:35;;;;;;;3.55;1.73;;;14.70;97.50;;;;;;4408393;32;20135;-69
2023/04/23 01:09:00;;;;;;;1.30;1.02;;;14.80;97.70;;;;;;4408898;32;20098;-68
2023/04/23 01:11:26;;;;;;;1.33;0.82;;;14.70;97.70;;;;;;4409595;32;20062;-69
2023/04/23 01:13:52;;;;;;;1.20;0.93;;;14.80;97.40;;;;;;4409249;32;20082;-69
2023/04/23 01:16:17;;;;;;;0.98;0.90;;;14.70;97.80;;;;;;4408726;32;20081;-68
2023/04/23 01:18:43;;;;;;;3.25;0.80;;;14.70;98.30;;;;;;4410983;32;20077;-69
2023/04/23 01:21:10;;;;;;;2.60;1.05;;;14.70;97.90;;;;;;4409616;32;20089;-73
2023/04/23 01:23:37;;;;;;;2.10;0.88;;;14.80;97.50;;;;;;4411325;32;20144;-69
2023/04/23 01:26:02;;;;;;;1.00;0.90;;;15.00;97.30;;;;;;4408597;32;20062;-69
2023/04/23 01:28:29;;;;;;;0.57;0.57;;;15.10;97.40;;;;;;4407554;32;20105;-70
2023/04/23 01:30:55;;;;;;;1.30;0.85;;;14.90;97.70;;;;;;4400601;32;20105;-69
2023/04/23 01:33:20;;;;;;;1.70;1.00;;;14.90;98.20;;;;;;4400046;32;20133;-69
2023/04/23 01:35:48;;;;;;;0.88;0.70;;;14.90;98.10;;;;;;4401509;32;20450;-68
2023/04/23 01:38:14;;;;;;;1.23;0.82;;;15.00;98.20;;;;;;4397418;32;20420;-69
2023/04/23 01:40:39;;;;;;;1.80;1.23;;;15.10;98.20;;;;;;4399656;32;20429;-69
2023/04/23 01:43:06;;;;;;;1.95;1.00;;;15.20;98.40;;;;;;4401481;32;20094;-69
2023/04/23 01:45:32;;;;;;;0.62;0.62;;;15.30;98.70;;;;;;4397271;32;20106;-69
2023/04/23 01:47:59;;;;;;;1.33;0.62;;;15.20;99.30;;;;;;4399606;32;20090;-69
2023/04/23 01:50:26;;;;;;;1.08;0.98;;;15.20;99.90;;;;;;4399102;32;20121;-69
2023/04/23 01:52:52;;;;;;;0.65;0.60;;;15.00;99.90;;;;;;4400219;32;20149;-68
2023/04/23 01:55:19;;;;;;;1.10;0.88;;;14.80;99.90;;;;;;4398920;32;20536;-69
2023/04/23 01:57:45;;;;;;;1.25;1.08;;;14.80;99.90;;;;;;4396966;32;20073;-70
2023/04/23 02:00:12;;;;;;;1.80;1.33;;;14.80;99.90;;;;;;4396736;32;20078;-69
2023/04/23 02:02:39;;;;;;;1.12;0.73;;;14.60;99.90;;;;;;4401032;32;20448;-68
2023/04/23 02:05:10;;;;;;;0.60;0.60;;;14.60;99.90;;;;;;4399906;32;20510;-68
2023/04/23 02:07:36;;;;;;;5.53;1.73;;;14.50;99.90;;;;;;4396090;32;20153;-68
2023/04/23 02:10:02;;;;;;;1.50;1.17;;;14.50;99.90;;;;;;4400224;32;20097;-69
2023/04/23 02:12:28;;;;;;;1.05;0.95;;;14.40;99.90;;;;;;4398265;32;20512;-68
2023/04/23 02:14:53;;;;;;;0.50;0.50;;;14.10;99.90;;;;;;4399422;32;20077;-70
2023/04/23 02:17:21;;;;;;;1.62;0.88;;;14.10;99.90;;;;;;4398043;32;20576;-71
2023/04/23 02:19:47;;;;;;;1.50;1.17;;;13.80;99.90;;;;;;4400831;32;20066;-71
2023/04/23 02:22:13;;;;;;;2.05;0.73;;;13.60;99.90;;;;;;4397258;32;20085;-69
2023/04/23 02:24:40;;;;;;;0.80;0.80;;;13.60;99.90;;;;;;4401728;32;20081;-72
2023/04/23 02:27:07;;;;;;;5.40;0.88;;;13.70;99.90;;;;;;4402027;32;20097;-69
2023/04/23 02:29:32;;;;;;;1.05;0.80;;;13.80;99.90;;;;;;4401126;32;20074;-70
2023/04/23 02:31:58;;;;;;;1.62;1.12;;;13.90;99.90;;;;;;4400314;32;20078;-71
2023/04/23 02:34:23;;;;;;;0.52;0.50;;;13.90;99.90;;;;;;4397056;32;20394;-73
2023/04/23 02:36:49;;;;;;;1.37;1.10;;;13.90;99.90;;;;;;4397396;32;20100;-69
2023/04/23 02:39:15;;;;;;;0.70;0.70;;;13.80;99.90;;;;;;4397016;32;20100;-69
2023/04/23 02:41:40;;;;;;;1.98;1.20;;;13.60;99.90;;;;;;4394908;32;20090;-68
2023/04/23 02:44:06;;;;;;;2.37;1.52;;;13.50;99.90;;;;;;4397741;32;20505;-70
2023/04/23 02:46:31;;;;;;;0.60;0.60;;;13.70;99.90;;;;;;4399641;32;20085;-73
2023/04/23 02:48:57;;;;;;;0.93;0.70;;;13.70;99.90;;;;;;4399502;32;20070;-73
2023/04/23 02:51:22;;;;;;;8.48;0.95;;;13.60;99.90;;;;;;4398430;32;20451;-74
2023/04/23 02:53:48;;;;;;;0.60;0.60;;;13.60;99.90;;;;;;4398236;32;20061;-74
2023/04/23 02:56:13;;;;;;;1.00;0.65;;;13.60;99.90;;;;;;4396969;32;20066;-73
2023/04/23 02:58:39;;;;;;;6.28;2.45;;;13.60;99.90;;;;;;4404934;32;20720;-73
2023/04/23 03:01:05;;;;;;;1.58;1.15;;;13.60;99.90;;;;;;4402292;32;20070;-73
2023/04/23 03:03:32;;;;;;;4.18;0.85;;;13.70;99.90;;;;;;4403415;32;20550;-73
2023/04/23 03:05:59;;;;;;;1.33;0.85;;;13.80;99.90;;;;;;4404092;32;20406;-73
2023/04/23 03:08:25;;;;;;;1.30;0.55;;;13.80;99.90;;;;;;4396106;32;20509;-73
2023/04/23 03:10:50;;;;;;;1.00;0.85;;;13.90;99.90;;;;;;4397540;32;20086;-73
2023/04/23 03:13:16;;;;;;;0.98;0.80;;;13.90;99.90;;;;;;4399418;32;20066;-73
2023/04/23 03:15:41;;;;;;;3.00;1.27;;;13.90;99.90;;;;;;4401517;32;20109;-73
2023/04/23 03:18:07;;;;;;;0.70;0.70;;;14.00;99.90;;;;;;4395542;32;20079;-73
2023/04/23 03:20:34;;;;;;;1.25;0.60;;;14.00;99.90;;;;;;4395677;32;20074;-73
2023/04/23 03:23:00;;;;;;;1.08;1.02;;;14.00;99.90;;;;;;4396093;32;20161;-73
2023/04/23 03:25:26;;;;;;;0.60;0.60;;;13.90;99.90;;;;;;4399351;32;20106;-73
2023/04/23 03:27:52;;;;;;;0.93;0.80;;;13.90;99.90;;;;;;4395154;32;20093;-74
2023/04/23 03:30:18;;;;;;;1.27;0.93;;;13.90;99.90;;;;;;4406392;32;20114;-73
2023/04/23 03:32:44;;;;;;;1.35;0.88;;;13.80;99.90;;;;;;4408627;32;20057;-73
2023/04/23 03:35:09;;;;;;;2.90;0.93;;;13.70;99.90;;;;;;4411821;32;20451;-73
2023/04/23 03:37:35;;;;;;;0.62;0.62;;;13.70;99.90;;;;;;4411759;32;20462;-73
2023/04/23 03:40:05;;;;;;;0.57;0.57;;;13.70;99.90;;;;;;4408653;32;20111;-73
2023/04/23 03:42:31;;;;;;;14.10;1.52;;;13.90;99.90;;;;;;4408409;32;20077;-73
2023/04/23 03:44:56;;;;;;;0.60;0.57;;;14.10;99.90;;;;;;4410237;32;20143;-73
2023/04/23 03:47:22;;;;;;;1.12;0.80;;;14.00;99.90;;;;;;4409372;32;20156;-74
2023/04/23 03:49:47;;;;;;;0.70;0.65;;;14.10;99.90;;;;;;4410132;32;20078;-73
2023/04/23 03:52:13;;;;;;;0.60;0.60;;;14.20;99.90;;;;;;4410973;32;20415;-74
2023/04/23 03:54:38;;;;;;;0.68;0.68;;;14.20;99.90;;;;;;4409563;32;20157;-74
2023/04/23 03:57:04;;;;;;;1.15;0.93;;;14.30;99.90;;;;;;4408969;32;20098;-73
2023/04/23 03:59:29;;;;;;;0.93;0.90;;;14.20;99.90;;;;;;4409632;32;20077;-73
2023/04/23 04:01:55;;;;;;;0.60;0.60;;;14.20;99.90;;;;;;4410600;32;20069;-74
2023/04/23 04:04:20;;;;;;;1.12;0.62;;;14.10;99.90;;;;;;4409801;32;20070;-74
2023/04/23 04:06:46;;;;;;;0.50;0.50;;;14.10;99.90;;;;;;4410286;32;20077;-74
2023/04/23 04:09:11;;;;;;;0.80;0.80;;;14.10;99.90;;;;;;4410596;32;20086;-74
2023/04/23 04:11:37;;;;;;;2.70;1.15;;;14.10;99.90;;;;;;4411201;32;20065;-74
2023/04/23 04:14:02;;;;;;;1.33;0.70;;;14.10;99.90;;;;;;4411001;32;20078;-73
2023/04/23 04:16:28;;;;;;;6.15;2.03;;;14.00;99.90;;;;;;4410585;32;20094;-73
2023/04/23 04:18:53;;;;;;;1.27;1.17;;;14.00;99.90;;;;;;4410731;32;20121;-73
2023/04/23 04:21:19;;;;;;;1.70;1.10;;;14.00;99.90;;;;;;4408849;32;20075;-73
2023/04/23 04:23:44;;;;;;;2.05;1.40;;;14.00;99.90;;;;;;4410956;32;20078;-73
2023/04/23 04:26:11;;;;;;;0.50;0.50;;;14.10;99.90;;;;;;4410175;32;20513;-73
2023/04/23 04:28:37;;;;;;;0.80;0.70;;;14.00;99.90;;;;;;4408869;32;20094;-74
2023/04/23 04:31:04;;;;;;;0.62;0.60;;;14.00;99.90;;;;;;4401486;32;20452;-75
2023/04/23 04:33:30;;;;;;;0.60;0.60;;;13.90;99.90;;;;;;4400323;32;20422;-74
2023/04/23 04:35:56;;;;;;;0.77;0.70;;;13.80;99.90;;;;;;4401123;32;20198;-74
2023/04/23 04:38:22;;;;;;;0.60;0.60;;;14.00;99.90;;;;;;4401878;32;20139;-74
2023/04/23 04:40:49;;;;;;;5.68;0.88;;;14.10;99.90;;;;;;4398979;32;20077;-74
2023/04/23 04:43:15;;;;;;;0.60;0.60;;;14.10;99.90;;;;;;4401932;32;20199;-74
2023/04/23 04:45:41;;;;;;;1.00;0.70;;;14.20;99.90;;;;;;4399258;32;20624;-74
2023/04/23 04:48:07;;;;;;;1.17;1.10;;;14.30;99.90;;;;;;4401918;32;20091;-74
2023/04/23 04:50:32;;;;;;;0.62;0.62;;;14.30;99.90;;;;;;4402616;32;20077;-74
2023/04/23 04:52:59;;;;;;;0.85;0.70;;;14.30;99.90;;;;;;4401182;32;20081;-74
2023/04/23 04:55:25;;;;;;;1.02;0.80;;;14.30;99.90;;;;;;4401493;32;20141;-74
2023/04/23 04:57:52;;;;;;;0.65;0.65;;;14.30;99.90;;;;;;4399823;32;20557;-73
2023/04/23 05:00:22;;;;;;;1.12;1.00;;;14.30;99.90;;;;;;4400785;32;20117;-73
2023/04/23 05:02:49;;;;;;;0.93;0.43;;;14.30;99.90;;;;;;4398954;32;20069;-73
2023/04/23 05:05:15;;;;;;;3.35;1.50;;;14.10;99.90;;;;;;4401647;32;20132;-73
2023/04/23 05:07:40;;;;;;;0.80;0.80;;;14.00;99.90;;;;;;4400460;32;20514;-73
2023/04/23 05:10:06;;;;;;;1.70;0.98;;;14.20;99.90;;;;;;4394507;32;20057;-73
2023/04/23 05:12:31;;;;;;;0.73;0.73;;;14.10;99.90;;;;;;4395720;32;20081;-73
2023/04/23 05:14:57;;;;;;;0.70;0.70;;;14.10;99.90;;;;;;4394502;32;20090;-74
2023/04/23 05:17:22;;;;;;;1.15;1.05;;;14.20;99.90;;;;;;4395338;32;20093;-73
2023/04/23 05:19:48;;;;;;;2.20;0.93;;;14.20;99.90;;;;;;4398983;32;21633;-73
2023/04/23 05:22:14;;;;;;;1.12;0.95;;;14.10;99.90;;;;;;4404442;32;20082;-74
2023/04/23 05:24:39;;;;;;;1.00;0.50;;;14.20;99.90;;;;;;4397587;32;20065;-73
2023/04/23 05:27:05;;;;;;;1.98;0.85;;;14.30;99.90;;;;;;4398432;32;20087;-73
2023/04/23 05:29:30;;;;;;;0.60;0.60;;;14.30;99.90;;;;;;4399044;32;20125;-73
2023/04/23 05:31:56;;;;;;;2.97;1.00;;;14.40;99.90;;;;;;4397043;32;20094;-73
2023/04/23 05:34:21;;;;;;;0.75;0.55;;;14.40;99.90;;;;;;4396116;32;20069;-73
2023/04/23 05:36:47;;;;;;;4.60;0.95;;;14.40;99.90;;;;;;4398501;32;20089;-73
2023/04/23 05:39:12;;;;;;;0.50;0.50;;;14.30;99.90;;;;;;4398276;32;20791;-74
2023/04/23 05:41:38;;;;;;;1.12;0.52;;;14.40;99.90;;;;;;4400721;32;20150;-73
2023/04/23 05:44:03;;;;;;;0.50;0.50;;;14.30;99.90;;;;;;4396728;32;20089;-73
2023/04/23 05:46:29;;;;;;;1.62;0.93;;;14.30;99.90;;;;;;4395692;32;20186;-73
2023/04/23 05:48:54;;;;;;;1.45;1.02;;;14.30;99.90;;;;;;4399296;32;20672;-73
2023/04/23 05:51:21;;;;;;;0.60;0.60;;;14.30;99.90;;;;;;4396217;32;20089;-73
2023/04/23 05:53:46;;;;;;;1.90;0.65;;;14.20;99.90;;;;;;4399392;32;20501;-73
2023/04/23 05:56:11;;;;;;;1.17;0.82;;;14.20;99.90;;;;;;4401591;32;20068;-73
2023/04/23 05:58:37;;;;;;;1.45;0.90;;;14.30;99.90;;;;;;4398376;32;20514;-73
2023/04/23 06:01:03;;;;;;;0.50;0.50;;;14.40;99.90;;;;;;4399292;32;20093;-73
2023/04/23 06:03:28;;;;;;;0.70;0.70;;;14.50;99.90;;;;;;4398692;32;20557;-73
2023/04/23 06:05:54;;;;;;;0.82;0.65;;;14.50;99.90;;;;;;4402203;32;20077;-73
2023/04/23 06:08:19;;;;;;;0.75;0.75;;;14.60;99.90;;;;;;4397955;32;20103;-75
2023/04/23 06:10:45;;;;;;;1.80;1.12;;;14.60;99.90;;;;;;4396790;32;20143;-75
2023/04/23 06:13:11;;;;;;;0.47;0.47;;;14.60;99.90;;;;;;4398520;32;20604;-73
2023/04/23 06:15:37;;;;;;;4.07;1.70;;;14.50;99.90;;;;;;4400241;32;20069;-74
2023/04/23 06:18:02;;;;;;;1.35;1.00;;;14.50;99.90;;;;;;4400909;32;20600;-74
2023/04/23 06:20:28;;;;;;;0.50;0.50;;;14.50;99.90;;;;;;4398296;32;20078;-72
2023/04/23 06:22:54;;;;;;;1.37;0.95;;;14.40;99.90;;;;;;4396310;32;20061;-73
2023/04/23 06:25:19;;;;;;;0.70;0.62;;;14.40;99.90;;;;;;4399752;32;20116;-74
2023/04/23 06:27:45;;;;;;;0.73;0.60;;;14.50;99.90;;;;;;4397725;32;20070;-73
2023/04/23 06:30:11;;;;;;;1.25;0.73;;;14.50;99.90;;;;;;4398600;32;20102;-75
2023/04/23 06:32:36;;;;;;;1.55;0.93;;;14.50;99.90;;;;;;4398249;32;20118;-75
2023/04/23 06:35:03;;;;;;;0.40;0.40;;;14.70;99.90;;;;;;4398425;32;20089;-75
2023/04/23 06:37:30;;;;;;;0.68;0.60;;;14.70;99.90;;;;;;4398578;32;20718;-75
2023/04/23 06:39:56;;;;;;;0.40;0.40;;;14.80;99.90;;;;;;4402204;32;20132;-74
2023/04/23 06:42:22;;;;;;;1.05;0.80;;;14.70;99.90;;;;;;4399576;32;20074;-74
2023/04/23 06:44:47;;;;;;;1.55;0.65;;;14.70;99.90;;;;;;4402484;32;20604;-74
2023/04/23 06:47:13;;;;;;;4.53;1.02;;;14.70;99.90;;;;;;4398227;32;20079;-74
2023/04/23 06:49:39;;;;;;;0.40;0.40;;;14.70;99.90;;;;;;4398931;32;20609;-74
2023/04/23 06:52:05;;;;;;;0.40;0.40;;;14.70;99.90;;;;;;4396717;32;20094;-74
2023/04/23 06:54:30;;;;;;;0.62;0.62;;;14.60;99.90;;;;;;4399935;32;20085;-74
2023/04/23 06:56:56;;;;;;;0.40;0.40;;;14.50;99.90;;;;;;4399521;32;20094;-74
2023/04/23 06:59:21;;;;;;;0.50;0.50;;;14.50;99.90;;;;;;4398032;32;20082;-75
2023/04/23 07:01:47;;;;;;;0.50;0.50;;;14.30;99.90;;;;;;4401289;32;20144;-74
2023/04/23 07:04:12;;;;;;;0.77;0.70;;;14.30;99.90;;;;;;4398414;32;20102;-74
2023/04/23 07:06:38;;;;;;;0.88;0.80;;;14.30;99.90;;;;;;4398775;32;20070;-74
2023/04/23 07:09:03;;;;;;;0.50;0.50;;;14.30;99.90;;;;;;4399563;32;20459;-74
2023/04/23 07:11:30;;;;;;;0.70;0.70;;;14.30;99.90;;;;;;4402312;32;20085;-74
2023/04/23 07:13:56;;;;;;;8.77;2.35;;;14.30;99.90;;;;;;4402463;32;20074;-74
2023/04/23 07:16:23;;;;;;;0.60;0.60;;;14.20;99.90;;;;;;4400850;32;20082;-74
2023/04/23 07:18:49;;;;;;;1.12;1.08;;;14.20;99.90;;;;;;4402487;32;20210;-75
2023/04/23 07:21:14;;;;;;;1.65;0.80;;;14.20;99.90;;;;;;4399441;32;20469;-75
2023/04/23 07:23:40;;;;;;;1.05;0.73;;;14.10;99.90;;;;;;4403330;32;20600;-75
2023/04/23 07:26:05;;;;;;;0.45;0.45;;;14.20;99.90;;;;;;4403279;32;20129;-75
2023/04/23 07:28:31;;;;;;;1.00;0.90;;;14.10;99.90;;;;;;4403371;32;20089;-75
2023/04/23 07:30:57;;;;;;;0.50;0.50;;;14.20;99.90;;;;;;4399777;32;20094;-73
2023/04/23 07:33:23;;;;;;;0.40;0.40;;;14.20;99.90;;;;;;4399487;32;20529;-73
2023/04/23 07:35:48;;;;;;;1.40;0.98;;;14.30;99.90;;;;;;4398577;32;20075;-73
2023/04/23 07:38:14;;;;;;;0.80;0.80;;;14.20;99.90;;;;;;4400179;32;20101;-74
2023/04/23 07:40:39;;;;;;;0.57;0.50;;;14.20;99.90;;;;;;4394527;32;20117;-73
2023/04/23 07:43:05;;;;;;;0.65;0.65;;;14.30;99.90;;;;;;4399413;32;20065;-73
2023/04/23 07:45:30;;;;;;;1.27;0.60;;;14.20;99.90;;;;;;4400020;32;20120;-75
2023/04/23 07:47:56;;;;;;;1.12;0.45;;;14.30;99.90;;;;;;4401825;32;20114;-75
2023/04/23 07:50:21;;;;;;;1.37;0.62;;;14.40;99.90;;;;;;4400664;32;20311;-75
2023/04/23 07:52:47;;;;;;;0.50;0.43;;;14.30;99.90;;;;;;4400212;32;20077;-74
2023/04/23 07:55:12;;;;;;;0.95;0.93;;;14.10;99.90;;;;;;4397480;32;20125;-74
2023/04/23 07:57:38;;;;;;;0.68;0.68;;;14.20;99.90;;;;;;4403377;32;20426;-74
2023/04/23 08:00:08;;;;;;;0.47;0.47;;;14.20;99.90;;;;;;4399853;32;20114;-74
2023/04/23 08:02:34;;;;;;;0.62;0.60;;;14.20;99.90;;;;;;4402664;32;20093;-74
2023/04/23 08:04:59;;;;;;;0.37;0.37;;;14.20;99.90;;;;;;4399779;32;20096;-74
2023/04/23 08:07:25;;;;;;;0.90;0.57;;;14.20;99.90;;;;;;4398321;32;20065;-74
2023/04/23 08:09:51;;;;;;;0.40;0.40;;;14.20;99.90;;;;;;4400382;32;20066;-74
2023/04/23 08:12:17;;;;;;;1.85;0.85;;;14.20;99.90;;;;;;4400272;32;20070;-74
2023/04/23 08:14:43;;;;;;;2.90;0.60;;;14.30;99.90;;;;;;4403360;32;20560;-74
2023/04/23 08:17:08;;;;;;;1.52;1.25;;;14.40;99.90;;;;;;4399691;32;20123;-74
2023/04/23 08:19:34;;;;;;;0.50;0.50;;;14.40;99.90;;;;;;4399791;32;20518;-74
2023/04/23 08:22:00;;;;;;;0.70;0.60;;;14.50;99.90;;;;;;4404824;32;20094;-74
2023/04/23 08:24:26;;;;;;;0.73;0.73;;;14.70;99.90;;;;;;4404473;32;20459;-75
2023/04/23 08:26:52;;;;;;;0.40;0.40;;;14.90;99.90;;;;;;4405743;32;20913;-74
2023/04/23 08:29:17;;;;;;;0.55;0.55;;;14.90;99.90;;;;;;4404640;32;20152;-74
2023/04/23 08:31:43;;;;;;;0.57;0.57;;;15.00;99.90;;;;;;4410508;32;20097;-74
2023/04/23 08:34:08;;;;;;;1.10;0.77;;;15.10;99.90;;;;;;4410500;32;20066;-74
2023/04/23 08:36:34;;;;;;;1.05;0.95;;;15.10;99.90;;;;;;4409666;32;20061;-75
2023/04/23 08:39:00;;;;;;;1.37;0.82;;;15.20;99.90;;;;;;4407640;32;20153;-74
2023/04/23 08:41:29;;;;;;;0.30;0.30;;;15.30;99.90;;;;;;4409275;32;20066;-75
2023/04/23 08:44:09;;;;;;;0.85;0.60;;;15.30;99.90;;;;;;4409143;32;20090;-75
2023/04/23 08:46:36;;;;;;;0.85;0.65;;;15.30;99.90;;;;;;4409887;32;20061;-75
2023/04/23 08:49:02;;;;;;;5.37;0.57;;;15.30;99.90;;;;;;4410478;32;20066;-75
2023/04/23 08:51:29;;;;;;;1.33;1.20;;;15.30;99.90;;;;;;4407952;32;20093;-75
2023/04/23 08:53:57;;;;;;;2.03;1.05;;;15.30;99.90;;;;;;4408879;32;20094;-73
2023/04/23 08:56:23;;;;;;;0.80;0.80;;;15.20;99.90;;;;;;4411136;32;20082;-73
2023/04/23 08:58:49;;;;;;;0.50;0.50;;;15.00;99.90;;;;;;4409991;32;20097;-73
2023/04/23 09:01:16;;;;;;;3.25;1.58;;;14.80;99.90;;;;;;4408950;32;20061;-73
2023/04/23 09:03:44;;;;;;;0.73;0.73;;;14.70;99.90;;;;;;4411654;32;20429;-74
2023/04/23 09:06:10;;;;;;;0.50;0.50;;;14.60;99.90;;;;;;4411831;32;20184;-74
2023/04/23 09:08:37;;;;;;;1.35;0.50;;;14.60;99.90;;;;;;4408852;32;20589;-70
2023/04/23 09:11:04;;;;;;;0.40;0.40;;;14.60;99.90;;;;;;4408788;32;20065;-70
2023/04/23 09:13:33;;;;;;;0.40;0.40;;;14.50;99.90;;;;;;4409620;32;20428;-68
2023/04/23 09:15:59;;;;;;;0.65;0.45;;;14.50;99.90;;;;;;4411072;32;20566;-68
2023/04/23 09:18:25;;;;;;;0.57;0.57;;;14.30;99.90;;;;;;4409552;32;20061;-68
2023/04/23 09:20:52;;;;;;;0.40;0.40;;;14.20;99.90;;;;;;4408565;32;20065;-70
2023/04/23 09:23:21;;;;;;;0.47;0.47;;;14.20;99.90;;;;;;4409435;32;20572;-70
2023/04/23 09:25:46;;;;;;;0.50;0.50;;;14.20;99.90;;;;;;4408442;32;20079;-68
2023/04/23 09:28:13;;;;;;;0.50;0.50;;;14.20;99.90;;;;;;4409921;32;20465;-70
2023/04/23 09:30:43;;;;;;;0.43;0.43;;;14.20;99.90;;;;;;4409672;32;20124;-70
2023/04/23 09:33:11;;;;;;;0.62;0.62;;;14.20;99.90;;;;;;4409093;32;20101;-70
2023/04/23 09:35:37;;;;;;;0.77;0.68;;;14.00;99.90;;;;;;4408544;32;20082;-70
2023/04/23 09:38:06;;;;;;;1.12;0.43;;;14.00;99.90;;;;;;4408180;32;20098;-69
2023/04/23 09:40:32;;;;;;;0.50;0.50;;;14.00;99.90;;;;;;4409386;32;20069;-68
2023/04/23 09:42:58;;;;;;;1.35;0.57;;;14.00;99.90;;;;;;4409053;32;20069;-70
2023/04/23 09:45:24;;;;;;;0.40;0.40;;;14.00;99.90;;;;;;4409991;32;20077;-70
2023/04/23 09:47:55;;;;;;;0.35;0.35;;;13.80;99.90;;;;;;4407718;32;20089;-68
2023/04/23 09:50:40;;;;;;;0.30;0.30;;;13.80;99.90;;;;;;4409546;32;20081;-68
2023/04/23 09:53:07;;;;;;;0.35;0.35;;;13.70;99.90;;;;;;4397846;32;20477;-68
2023/04/23 09:55:37;;;;;;;0.30;0.30;;;13.50;99.90;;;;;;4408837;32;20082;-70
2023/04/23 09:58:05;;;;;;;0.40;0.40;;;13.50;99.90;;;;;;4404551;32;20172;-71
2023/04/23 10:00:35;;;;;;;0.80;0.50;;;13.40;99.90;;;;;;4406485;32;20126;-71
2023/04/23 10:03:01;;;;;;;1.85;0.62;;;13.30;99.90;;;;;;4409170;32;20103;-70
2023/04/23 10:05:28;;;;;;;1.10;0.60;;;13.20;99.90;;;;;;4409712;32;20530;-68
2023/04/23 10:07:55;;;;;;;1.08;0.55;;;13.20;99.90;;;;;;4407462;32;20093;-69
2023/04/23 10:10:21;;;;;;;0.45;0.45;;;13.20;99.90;;;;;;4409049;32;20098;-68
2023/04/23 10:12:46;;;;;;;0.73;0.73;;;13.20;99.90;;;;;;4407316;32;20493;-70
2023/04/23 10:15:13;;;;;;;0.30;0.30;;;13.10;99.90;;;;;;4408573;32;20102;-68
2023/04/23 10:17:39;;;;;;;0.30;0.30;;;13.10;99.90;;;;;;4407626;32;20078;-70
2023/04/23 10:20:07;;;;;;;0.45;0.45;;;13.20;99.90;;;;;;4409170;32;20141;-69
2023/04/23 10:22:33;;;;;;;0.70;0.70;;;13.10;99.90;;;;;;4409578;32;20094;-70
2023/04/23 10:25:07;;;;;;;1.00;0.82;;;13.00;99.90;;;;;;4407881;32;20082;-70
2023/04/23 10:27:36;;;;;;;0.88;0.50;;;13.20;99.90;;;;;;4407227;32;20091;-69
2023/04/23 10:30:04;;;;;;;0.40;0.40;;;13.30;99.90;;;;;;4402354;32;20082;-72
2023/04/23 10:32:32;;;;;;;0.60;0.60;;;13.50;99.90;;;;;;4402378;32;20176;-71
2023/04/23 10:34:57;;;;;;;1.77;0.98;;;13.60;99.90;;;;;;4401788;32;20081;-69
2023/04/23 10:37:23;;;;;;;3.50;0.70;;;13.80;99.90;;;;;;4397397;32;20133;-69
2023/04/23 10:39:54;;;;;;;0.43;0.43;;;13.90;99.90;;;;;;4399590;32;20084;-69
2023/04/23 10:42:20;;;;;;;0.50;0.50;;;14.10;99.90;;;;;;4400073;32;20137;-68
2023/04/23 10:44:45;;;;;;;1.33;0.60;;;14.20;99.90;;;;;;4399024;32;20180;-70
2023/04/23 10:47:15;;;;;;;0.43;0.43;;;14.20;99.90;;;;;;4400831;32;20085;-71
2023/04/23 10:49:42;;;;;;;0.30;0.30;;;14.30;99.90;;;;;;4398199;32;20062;-69
2023/04/23 10:52:14;;;;;;;0.70;0.68;;;14.40;99.90;;;;;;4402518;32;20518;-69
2023/04/23 10:54:41;;;;;;;0.37;0.37;;;14.40;99.90;;;;;;4402292;32;20065;-69
2023/04/23 10:57:08;;;;;;;0.65;0.65;;;14.30;99.90;;;;;;4405030;32;20073;-69
2023/04/23 10:59:35;;;;;;;1.08;0.40;;;14.30;99.90;;;;;;4402092;32;20267;-69
2023/04/23 11:02:16;;;;;;;0.73;0.62;;;14.40;99.90;;;;;;4401572;32;20074;-69
2023/04/23 11:04:45;;;;;;;;;;;14.30;99.90;;;;;;4401468;32;20074;-70
2023/04/23 11:07:12;;;;;;;0.40;0.40;;;14.20;99.90;;;;;;4400794;32;20027;-69
2023/04/23 11:09:46;;;;;;;0.93;0.77;;;14.20;99.90;;;;;;4403945;32;20474;-69
2023/04/23 11:12:30;;;;;;;0.47;0.47;;;14.40;99.90;;;;;;4399770;32;20513;-70
2023/04/23 11:14:58;;;;;;;0.65;0.65;;;14.30;99.90;;;;;;4400111;32;20555;-70
2023/04/23 11:17:47;;;;;;;0.37;0.37;;;14.30;99.90;;;;;;4401749;32;20106;-70
2023/04/23 11:20:17;;;;;;;1.02;0.60;;;14.30;99.90;;;;;;4389515;32;20082;-70
2023/04/23 11:22:44;;;;;;;1.17;1.07;;;14.30;99.90;;;;;;4400954;32;20561;-69
2023/04/23 11:25:12;;;;;;;0.50;0.50;;;14.20;99.90;;;;;;4401457;32;20549;-71
2023/04/23 11:27:40;;;;;;;0.55;0.55;;;14.20;99.90;;;;;;4401304;32;20082;-70
2023/04/23 11:30:15;;;;;;;0.93;0.65;;;14.00;99.90;;;;;;4407599;32;20094;-69
2023/04/23 11:32:43;;;;;;;1.08;0.55;;;14.00;99.90;;;;;;4408351;32;20093;-71
2023/04/23 11:35:10;;;;;;;0.50;0.50;;;14.10;99.90;;;;;;4408671;32;20058;-69
2023/04/23 11:37:40;;;;;;;0.52;0.43;;;14.00;99.90;;;;;;4409400;32;20120;-70
2023/04/23 11:40:09;;;;;;;0.50;0.50;;;14.20;99.90;;;;;;4408174;32;20105;-72
2023/04/23 11:42:53;;;;;;;1.55;1.00;;;14.40;99.90;;;;;;4409975;32;20101;-71
2023/04/23 11:45:20;;;;;;;2.10;0.88;;;14.90;99.90;;;;;;4406752;32;85703;-70
2023/04/23 11:47:49;;;;;;;1.02;0.60;;;15.50;99.90;;;;;;4411286;32;20082;-69
2023/04/23 11:50:25;;;;;;;0.60;0.60;;;16.00;99.90;;;;;;4409568;32;20628;-72
2023/04/23 11:52:51;;;;;;;0.47;0.47;;;16.30;99.90;;;;;;4410006;32;20054;-70
2023/04/23 11:55:17;;;;;;;0.37;0.37;;;16.50;99.90;;;;;;4410359;32;20058;-69
2023/04/23 11:57:46;;;;;;;0.73;0.70;;;17.10;99.90;;;;;;4408761;32;20089;-71
2023/04/23 12:00:15;;;;;;;0.55;0.40;;;17.60;99.90;;;;;;4409915;32;20062;-70
2023/04/23 12:03:02;;;;;;;0.40;0.40;;;17.90;99.90;;;;;;4409319;32;20423;-71
2023/04/23 12:05:35;;;;;;;0.30;0.30;;;18.10;99.90;;;;;;4397554;32;20158;-69
2023/04/23 12:08:10;;;;;;;0.40;0.40;;;18.10;99.90;;;;;;4408462;32;20109;-69
2023/04/23 12:10:48;;;;;;;0.30;0.30;;;17.80;99.90;;;;;;4406730;32;20106;-70
2023/04/23 12:13:16;;;;;;;0.50;0.50;;;18.00;99.90;;;;;;4408642;32;20167;-69
2023/04/23 12:15:46;;;;;;;0.30;0.30;;;18.10;99.90;;;;;;4409263;32;20082;-68
2023/04/23 12:18:11;;;;;;;0.30;0.30;;;18.10;99.90;;;;;;4409261;32;20082;-71
2023/04/23 12:20:39;;;;;;;0.30;0.30;;;18.00;99.90;;;;;;4410059;32;20184;-70
2023/04/23 12:23:05;;;;;;;0.35;0.35;;;18.20;99.90;;;;;;4406904;32;20094;-71
2023/04/23 12:25:32;;;;;;;0.20;0.20;;;18.60;99.90;;;;;;4401438;32;21014;-70
2023/04/23 12:27:59;;;;;;;0.30;0.30;;;18.80;99.90;;;;;;4408119;32;20183;-71
2023/04/23 12:30:28;;;;;;;0.30;0.30;;;19.20;99.90;;;;;;4396623;32;20110;-71
2023/04/23 12:33:05;;;;;;;0.32;0.32;;;19.90;99.90;;;;;;4395647;32;20057;-70
2023/04/23 12:35:40;;;;;;;0.30;0.30;;;20.60;99.90;;;;;;4398819;32;20069;-69
2023/04/23 12:38:05;;;;;;;0.20;0.20;;;20.40;99.90;;;;;;4399894;32;20090;-69
2023/04/23 12:40:31;;;;;;;0.20;0.20;;;20.20;99.90;;;;;;4400851;32;20533;-69
2023/04/23 12:42:57;;;;;;;0.40;0.40;;;20.60;99.90;;;;;;4397528;32;20512;-69
2023/04/23 12:45:22;;;;;;;0.17;0.17;;;20.90;99.90;;;;;;4395794;32;20145;-70